Terminal Aerodrome Forecast
Issued by NWS

Home | Current Version | Previous Version | Text Only | Print | Product List | Glossary Off
Versions: 1 2 3 4 5 6 7 8 9 10 11 12 13 14

000
FTUS41 KCLE 292341
TAFFDY
TAF
KFDY 292341Z 3000/3024 28008KT P6SM SCT050
      TEMPO 3000/3001 5SM -TSRA BKN050CB
     FM300500 26006KT P6SM SKC
     FM301700 28012G20KT P6SM SKC
     FM302300 28008KT P6SM SKC=

USA.gov is the U.S. government's official web portal to all federal, state and local government web resources and services.